sensor_id;sensor_type;location;lat;lon;timestamp;P1;durP1;ratioP1;P2;durP2;ratioP2
37877;SDS011;23715;53.652;8.516;2023-07-30T00:03:20;76.02;;;71.57;;
37877;SDS011;23715;53.652;8.516;2023-07-30T00:08:21;71.40;;;67.30;;
37877;SDS011;23715;53.652;8.516;2023-07-30T00:13:21;70.85;;;66.80;;
37877;SDS011;23715;53.652;8.516;2023-07-30T00:18:22;72.47;;;68.25;;
37877;SDS011;23715;53.652;8.516;2023-07-30T00:28:21;69.00;;;64.90;;
37877;SDS011;23715;53.652;8.516;2023-07-30T00:33:22;71.42;;;67.20;;
37877;SDS011;23715;53.652;8.516;2023-07-30T00:38:25;69.37;;;65.25;;
37877;SDS011;23715;53.652;8.516;2023-07-30T00:43:27;76.12;;;71.70;;
37877;SDS011;23715;53.652;8.516;2023-07-30T00:48:27;74.40;;;69.90;;
37877;SDS011;23715;53.652;8.516;2023-07-30T00:53:29;74.30;;;69.85;;
37877;SDS011;23715;53.652;8.516;2023-07-30T00:58:30;73.83;;;69.53;;
37877;SDS011;23715;53.652;8.516;2023-07-30T01:03:32;73.70;;;69.37;;
37877;SDS011;23715;53.652;8.516;2023-07-30T01:08:32;72.82;;;68.47;;
37877;SDS011;23715;53.652;8.516;2023-07-30T01:13:34;72.62;;;68.15;;
37877;SDS011;23715;53.652;8.516;2023-07-30T01:18:35;76.28;;;71.82;;
37877;SDS011;23715;53.652;8.516;2023-07-30T01:23:35;75.50;;;70.60;;
37877;SDS011;23715;53.652;8.516;2023-07-30T01:28:43;69.12;;;65.10;;
37877;SDS011;23715;53.652;8.516;2023-07-30T01:33:46;71.02;;;66.85;;
37877;SDS011;23715;53.652;8.516;2023-07-30T01:38:50;69.25;;;64.75;;
37877;SDS011;23715;53.652;8.516;2023-07-30T01:43:51;67.22;;;63.28;;
37877;SDS011;23715;53.652;8.516;2023-07-30T01:48:52;68.92;;;64.53;;
37877;SDS011;23715;53.652;8.516;2023-07-30T01:53:53;65.75;;;61.60;;
37877;SDS011;23715;53.652;8.516;2023-07-30T01:58:53;67.78;;;63.50;;
37877;SDS011;23715;53.652;8.516;2023-07-30T02:03:54;65.20;;;61.40;;
37877;SDS011;23715;53.652;8.516;2023-07-30T02:08:54;68.75;;;64.65;;
37877;SDS011;23715;53.652;8.516;2023-07-30T02:13:54;66.55;;;62.70;;
37877;SDS011;23715;53.652;8.516;2023-07-30T02:18:55;69.62;;;65.30;;
37877;SDS011;23715;53.652;8.516;2023-07-30T02:28:55;67.50;;;63.20;;
37877;SDS011;23715;53.652;8.516;2023-07-30T02:33:57;65.63;;;61.93;;
37877;SDS011;23715;53.652;8.516;2023-07-30T02:39:00;66.45;;;62.43;;
37877;SDS011;23715;53.652;8.516;2023-07-30T02:43:59;63.48;;;59.60;;
37877;SDS011;23715;53.652;8.516;2023-07-30T02:49:01;67.85;;;63.78;;
37877;SDS011;23715;53.652;8.516;2023-07-30T02:59:02;70.22;;;66.07;;
37877;SDS011;23715;53.652;8.516;2023-07-30T03:04:03;66.25;;;62.35;;
37877;SDS011;23715;53.652;8.516;2023-07-30T03:09:04;63.08;;;58.95;;
37877;SDS011;23715;53.652;8.516;2023-07-30T03:14:04;62.83;;;58.83;;
37877;SDS011;23715;53.652;8.516;2023-07-30T03:19:04;66.22;;;61.80;;
37877;SDS011;23715;53.652;8.516;2023-07-30T03:24:05;67.27;;;62.80;;
37877;SDS011;23715;53.652;8.516;2023-07-30T03:29:05;65.08;;;61.02;;
37877;SDS011;23715;53.652;8.516;2023-07-30T03:34:05;70.40;;;65.95;;
37877;SDS011;23715;53.652;8.516;2023-07-30T03:39:07;68.62;;;64.35;;
37877;SDS011;23715;53.652;8.516;2023-07-30T03:44:07;69.62;;;64.97;;
37877;SDS011;23715;53.652;8.516;2023-07-30T03:49:08;72.53;;;67.97;;
37877;SDS011;23715;53.652;8.516;2023-07-30T03:54:12;66.80;;;62.70;;
37877;SDS011;23715;53.652;8.516;2023-07-30T03:59:12;68.55;;;64.10;;
37877;SDS011;23715;53.652;8.516;2023-07-30T04:04:13;67.72;;;63.90;;
37877;SDS011;23715;53.652;8.516;2023-07-30T04:09:13;73.37;;;68.62;;
37877;SDS011;23715;53.652;8.516;2023-07-30T04:14:13;69.67;;;65.42;;
37877;SDS011;23715;53.652;8.516;2023-07-30T04:19:13;67.32;;;62.80;;
37877;SDS011;23715;53.652;8.516;2023-07-30T04:24:14;66.42;;;62.15;;
37877;SDS011;23715;53.652;8.516;2023-07-30T04:29:14;70.28;;;65.67;;
37877;SDS011;23715;53.652;8.516;2023-07-30T04:34:15;69.87;;;65.40;;
37877;SDS011;23715;53.652;8.516;2023-07-30T04:39:15;68.50;;;63.52;;
37877;SDS011;23715;53.652;8.516;2023-07-30T04:49:15;72.10;;;67.27;;
37877;SDS011;23715;53.652;8.516;2023-07-30T04:54:15;69.47;;;64.75;;
37877;SDS011;23715;53.652;8.516;2023-07-30T04:59:16;68.92;;;64.25;;
37877;SDS011;23715;53.652;8.516;2023-07-30T05:09:15;61.23;;;57.17;;
37877;SDS011;23715;53.652;8.516;2023-07-30T05:14:16;59.88;;;55.73;;
37877;SDS011;23715;53.652;8.516;2023-07-30T05:19:16;63.05;;;58.00;;
37877;SDS011;23715;53.652;8.516;2023-07-30T05:29:16;71.77;;;66.45;;
37877;SDS011;23715;53.652;8.516;2023-07-30T05:34:16;68.85;;;64.25;;
37877;SDS011;23715;53.652;8.516;2023-07-30T05:39:16;68.07;;;63.52;;
37877;SDS011;23715;53.652;8.516;2023-07-30T05:44:16;68.33;;;63.37;;
37877;SDS011;23715;53.652;8.516;2023-07-30T05:49:17;65.17;;;60.17;;
37877;SDS011;23715;53.652;8.516;2023-07-30T05:54:18;63.05;;;58.95;;
37877;SDS011;23715;53.652;8.516;2023-07-30T05:59:19;62.23;;;57.53;;
37877;SDS011;23715;53.652;8.516;2023-07-30T06:04:20;65.92;;;60.50;;
37877;SDS011;23715;53.652;8.516;2023-07-30T06:09:20;65.08;;;60.20;;
37877;SDS011;23715;53.652;8.516;2023-07-30T06:14:20;63.75;;;58.70;;
37877;SDS011;23715;53.652;8.516;2023-07-30T06:19:20;63.17;;;58.48;;
37877;SDS011;23715;53.652;8.516;2023-07-30T06:24:21;62.67;;;58.48;;
37877;SDS011;23715;53.652;8.516;2023-07-30T06:30:20;70.75;;;66.15;;
37877;SDS011;23715;53.652;8.516;2023-07-30T06:35:21;70.05;;;65.25;;
37877;SDS011;23715;53.652;8.516;2023-07-30T06:40:21;69.05;;;64.30;;
37877;SDS011;23715;53.652;8.516;2023-07-30T06:45:21;64.80;;;60.60;;
37877;SDS011;23715;53.652;8.516;2023-07-30T06:50:22;63.00;;;58.83;;
37877;SDS011;23715;53.652;8.516;2023-07-30T06:55:22;66.90;;;62.30;;
37877;SDS011;23715;53.652;8.516;2023-07-30T07:00:22;70.78;;;66.25;;
37877;SDS011;23715;53.652;8.516;2023-07-30T07:05:22;71.70;;;66.28;;
37877;SDS011;23715;53.652;8.516;2023-07-30T07:10:23;69.20;;;64.27;;
37877;SDS011;23715;53.652;8.516;2023-07-30T07:15:23;71.45;;;65.97;;
37877;SDS011;23715;53.652;8.516;2023-07-30T07:20:25;68.62;;;63.38;;
37877;SDS011;23715;53.652;8.516;2023-07-30T07:25:25;66.33;;;61.95;;
37877;SDS011;23715;53.652;8.516;2023-07-30T07:30:26;70.47;;;65.67;;
37877;SDS011;23715;53.652;8.516;2023-07-30T07:35:28;74.60;;;69.50;;
37877;SDS011;23715;53.652;8.516;2023-07-30T07:40:29;69.67;;;65.27;;
37877;SDS011;23715;53.652;8.516;2023-07-30T07:45:29;68.52;;;63.73;;
37877;SDS011;23715;53.652;8.516;2023-07-30T07:50:29;72.65;;;67.15;;
37877;SDS011;23715;53.652;8.516;2023-07-30T07:55:30;73.37;;;68.33;;
37877;SDS011;23715;53.652;8.516;2023-07-30T08:05:29;59.27;;;55.08;;
37877;SDS011;23715;53.652;8.516;2023-07-30T08:10:30;65.33;;;61.00;;
37877;SDS011;23715;53.652;8.516;2023-07-30T08:15:33;64.45;;;59.77;;
37877;SDS011;23715;53.652;8.516;2023-07-30T08:25:36;57.50;;;53.48;;
37877;SDS011;23715;53.652;8.516;2023-07-30T08:30:36;56.68;;;52.50;;
37877;SDS011;23715;53.652;8.516;2023-07-30T08:35:36;58.85;;;54.83;;
37877;SDS011;23715;53.652;8.516;2023-07-30T08:40:36;52.03;;;47.73;;
37877;SDS011;23715;53.652;8.516;2023-07-30T08:45:39;55.58;;;51.77;;
37877;SDS011;23715;53.652;8.516;2023-07-30T08:50:40;56.18;;;52.00;;
37877;SDS011;23715;53.652;8.516;2023-07-30T08:55:41;47.50;;;44.00;;
37877;SDS011;23715;53.652;8.516;2023-07-30T09:00:41;44.63;;;40.95;;
37877;SDS011;23715;53.652;8.516;2023-07-30T09:05:43;48.58;;;45.25;;
37877;SDS011;23715;53.652;8.516;2023-07-30T09:10:43;46.33;;;43.17;;
37877;SDS011;23715;53.652;8.516;2023-07-30T09:15:43;44.98;;;41.77;;
37877;SDS011;23715;53.652;8.516;2023-07-30T09:20:46;48.80;;;45.58;;
37877;SDS011;23715;53.652;8.516;2023-07-30T09:25:47;49.33;;;45.33;;
37877;SDS011;23715;53.652;8.516;2023-07-30T09:30:48;44.25;;;41.08;;
37877;SDS011;23715;53.652;8.516;2023-07-30T09:35:51;45.97;;;42.73;;
37877;SDS011;23715;53.652;8.516;2023-07-30T09:40:53;46.02;;;42.33;;
37877;SDS011;23715;53.652;8.516;2023-07-30T09:45:54;46.10;;;42.55;;
37877;SDS011;23715;53.652;8.516;2023-07-30T09:51:01;42.85;;;39.58;;
37877;SDS011;23715;53.652;8.516;2023-07-30T09:56:04;38.00;;;35.17;;
37877;SDS011;23715;53.652;8.516;2023-07-30T10:01:05;36.73;;;34.00;;
37877;SDS011;23715;53.652;8.516;2023-07-30T10:06:06;36.00;;;33.33;;
37877;SDS011;23715;53.652;8.516;2023-07-30T10:16:10;41.55;;;38.45;;
37877;SDS011;23715;53.652;8.516;2023-07-30T10:21:21;44.98;;;41.80;;
37877;SDS011;23715;53.652;8.516;2023-07-30T10:26:14;42.75;;;39.78;;
37877;SDS011;23715;53.652;8.516;2023-07-30T10:31:15;43.55;;;40.15;;
37877;SDS011;23715;53.652;8.516;2023-07-30T10:36:30;42.25;;;39.20;;
37877;SDS011;23715;53.652;8.516;2023-07-30T10:41:18;42.73;;;39.75;;
37877;SDS011;23715;53.652;8.516;2023-07-30T10:46:20;42.58;;;39.27;;
37877;SDS011;23715;53.652;8.516;2023-07-30T10:51:20;42.78;;;39.40;;
37877;SDS011;23715;53.652;8.516;2023-07-30T10:56:22;41.35;;;38.45;;
37877;SDS011;23715;53.652;8.516;2023-07-30T11:01:25;38.48;;;35.73;;
37877;SDS011;23715;53.652;8.516;2023-07-30T11:11:25;44.38;;;41.58;;
37877;SDS011;23715;53.652;8.516;2023-07-30T11:16:26;45.50;;;42.50;;
37877;SDS011;23715;53.652;8.516;2023-07-30T11:21:28;49.93;;;46.65;;
37877;SDS011;23715;53.652;8.516;2023-07-30T11:26:29;45.88;;;42.83;;
37877;SDS011;23715;53.652;8.516;2023-07-30T11:31:29;35.78;;;33.35;;
37877;SDS011;23715;53.652;8.516;2023-07-30T11:36:29;38.00;;;35.08;;
37877;SDS011;23715;53.652;8.516;2023-07-30T11:41:30;35.33;;;32.75;;
37877;SDS011;23715;53.652;8.516;2023-07-30T11:46:30;38.02;;;35.13;;
37877;SDS011;23715;53.652;8.516;2023-07-30T11:51:31;36.55;;;34.33;;
37877;SDS011;23715;53.652;8.516;2023-07-30T11:56:33;38.13;;;35.70;;
37877;SDS011;23715;53.652;8.516;2023-07-30T12:01:36;41.48;;;38.63;;
37877;SDS011;23715;53.652;8.516;2023-07-30T12:11:50;47.62;;;44.55;;
37877;SDS011;23715;53.652;8.516;2023-07-30T12:16:52;44.65;;;41.68;;
37877;SDS011;23715;53.652;8.516;2023-07-30T12:21:52;47.73;;;44.77;;
37877;SDS011;23715;53.652;8.516;2023-07-30T12:31:52;45.80;;;42.95;;
37877;SDS011;23715;53.652;8.516;2023-07-30T12:36:54;48.57;;;45.67;;
37877;SDS011;23715;53.652;8.516;2023-07-30T12:41:54;45.25;;;42.45;;
37877;SDS011;23715;53.652;8.516;2023-07-30T12:46:56;46.92;;;44.13;;
37877;SDS011;23715;53.652;8.516;2023-07-30T12:56:56;41.10;;;38.60;;
37877;SDS011;23715;53.652;8.516;2023-07-30T13:01:56;42.53;;;39.85;;
37877;SDS011;23715;53.652;8.516;2023-07-30T13:06:57;43.75;;;41.15;;
37877;SDS011;23715;53.652;8.516;2023-07-30T13:16:57;49.03;;;46.10;;
37877;SDS011;23715;53.652;8.516;2023-07-30T13:22:00;50.85;;;47.75;;
37877;SDS011;23715;53.652;8.516;2023-07-30T13:27:00;51.40;;;48.42;;
37877;SDS011;23715;53.652;8.516;2023-07-30T13:32:01;50.12;;;46.92;;
37877;SDS011;23715;53.652;8.516;2023-07-30T13:37:01;49.80;;;46.75;;
37877;SDS011;23715;53.652;8.516;2023-07-30T13:42:02;54.90;;;51.73;;
37877;SDS011;23715;53.652;8.516;2023-07-30T13:47:02;44.05;;;41.18;;
37877;SDS011;23715;53.652;8.516;2023-07-30T13:52:04;43.68;;;40.98;;
37877;SDS011;23715;53.652;8.516;2023-07-30T13:57:05;41.13;;;38.23;;
37877;SDS011;23715;53.652;8.516;2023-07-30T14:02:06;41.28;;;38.85;;
37877;SDS011;23715;53.652;8.516;2023-07-30T14:07:07;41.80;;;39.27;;
37877;SDS011;23715;53.652;8.516;2023-07-30T14:12:07;42.40;;;39.58;;
37877;SDS011;23715;53.652;8.516;2023-07-30T14:17:08;46.88;;;43.38;;
37877;SDS011;23715;53.652;8.516;2023-07-30T14:22:15;53.45;;;49.58;;
37877;SDS011;23715;53.652;8.516;2023-07-30T14:27:15;50.98;;;47.08;;
37877;SDS011;23715;53.652;8.516;2023-07-30T14:32:15;46.58;;;43.08;;
37877;SDS011;23715;53.652;8.516;2023-07-30T14:37:20;48.10;;;44.90;;
37877;SDS011;23715;53.652;8.516;2023-07-30T14:42:20;43.65;;;40.95;;
37877;SDS011;23715;53.652;8.516;2023-07-30T14:47:25;42.10;;;39.53;;
37877;SDS011;23715;53.652;8.516;2023-07-30T14:57:42;40.70;;;38.40;;
37877;SDS011;23715;53.652;8.516;2023-07-30T15:02:44;40.00;;;37.90;;
37877;SDS011;23715;53.652;8.516;2023-07-30T15:07:45;39.60;;;37.40;;
37877;SDS011;23715;53.652;8.516;2023-07-30T15:12:54;43.20;;;40.80;;
37877;SDS011;23715;53.652;8.516;2023-07-30T15:22:55;40.58;;;38.28;;
37877;SDS011;23715;53.652;8.516;2023-07-30T15:27:58;35.88;;;33.50;;
37877;SDS011;23715;53.652;8.516;2023-07-30T15:32:59;35.98;;;33.85;;
37877;SDS011;23715;53.652;8.516;2023-07-30T15:38:00;35.83;;;33.38;;
37877;SDS011;23715;53.652;8.516;2023-07-30T15:43:01;35.05;;;32.50;;
37877;SDS011;23715;53.652;8.516;2023-07-30T15:53:30;40.78;;;38.38;;
37877;SDS011;23715;53.652;8.516;2023-07-30T15:58:42;44.98;;;42.38;;
37877;SDS011;23715;53.652;8.516;2023-07-30T16:03:43;40.63;;;38.17;;
37877;SDS011;23715;53.652;8.516;2023-07-30T16:08:46;40.03;;;37.48;;
37877;SDS011;23715;53.652;8.516;2023-07-30T16:13:48;39.48;;;36.83;;
37877;SDS011;23715;53.652;8.516;2023-07-30T16:18:51;38.58;;;35.63;;
37877;SDS011;23715;53.652;8.516;2023-07-30T16:23:55;40.60;;;37.55;;
37877;SDS011;23715;53.652;8.516;2023-07-30T16:28:55;35.60;;;33.30;;
37877;SDS011;23715;53.652;8.516;2023-07-30T16:33:56;33.45;;;30.92;;
37877;SDS011;23715;53.652;8.516;2023-07-30T16:38:56;29.45;;;27.50;;
37877;SDS011;23715;53.652;8.516;2023-07-30T16:43:57;25.23;;;23.80;;
37877;SDS011;23715;53.652;8.516;2023-07-30T16:48:57;26.02;;;24.27;;
37877;SDS011;23715;53.652;8.516;2023-07-30T16:58:57;24.35;;;22.62;;
37877;SDS011;23715;53.652;8.516;2023-07-30T17:03:57;25.95;;;23.85;;
37877;SDS011;23715;53.652;8.516;2023-07-30T17:13:57;26.37;;;24.55;;
37877;SDS011;23715;53.652;8.516;2023-07-30T17:18:57;29.50;;;27.20;;
37877;SDS011;23715;53.652;8.516;2023-07-30T17:23:57;47.08;;;42.38;;
37877;SDS011;23715;53.652;8.516;2023-07-30T17:28:58;30.97;;;29.05;;
37877;SDS011;23715;53.652;8.516;2023-07-30T17:38:58;46.27;;;43.30;;
37877;SDS011;23715;53.652;8.516;2023-07-30T17:43:59;41.95;;;39.27;;
37877;SDS011;23715;53.652;8.516;2023-07-30T17:49:00;43.05;;;39.08;;
37877;SDS011;23715;53.652;8.516;2023-07-30T17:54:07;42.53;;;39.60;;
37877;SDS011;23715;53.652;8.516;2023-07-30T17:59:03;43.48;;;40.83;;
37877;SDS011;23715;53.652;8.516;2023-07-30T18:04:03;41.40;;;39.00;;
37877;SDS011;23715;53.652;8.516;2023-07-30T18:09:04;38.10;;;35.75;;
37877;SDS011;23715;53.652;8.516;2023-07-30T18:14:05;43.52;;;41.10;;
37877;SDS011;23715;53.652;8.516;2023-07-30T18:19:06;43.60;;;41.10;;
37877;SDS011;23715;53.652;8.516;2023-07-30T18:24:06;47.58;;;44.70;;
37877;SDS011;23715;53.652;8.516;2023-07-30T18:29:06;45.95;;;43.33;;
37877;SDS011;23715;53.652;8.516;2023-07-30T18:34:07;45.40;;;42.43;;
37877;SDS011;23715;53.652;8.516;2023-07-30T18:39:10;44.63;;;42.10;;
37877;SDS011;23715;53.652;8.516;2023-07-30T18:44:10;43.02;;;40.30;;
37877;SDS011;23715;53.652;8.516;2023-07-30T18:49:10;43.73;;;41.13;;
37877;SDS011;23715;53.652;8.516;2023-07-30T18:54:12;43.10;;;40.70;;
37877;SDS011;23715;53.652;8.516;2023-07-30T18:59:12;43.08;;;40.63;;
37877;SDS011;23715;53.652;8.516;2023-07-30T19:04:13;45.10;;;42.60;;
37877;SDS011;23715;53.652;8.516;2023-07-30T19:09:14;44.33;;;41.70;;
37877;SDS011;23715;53.652;8.516;2023-07-30T19:14:17;44.67;;;42.37;;
37877;SDS011;23715;53.652;8.516;2023-07-30T19:19:17;43.42;;;41.02;;
37877;SDS011;23715;53.652;8.516;2023-07-30T19:24:17;46.35;;;43.60;;
37877;SDS011;23715;53.652;8.516;2023-07-30T19:29:19;48.63;;;45.75;;
37877;SDS011;23715;53.652;8.516;2023-07-30T19:39:19;47.27;;;44.45;;
37877;SDS011;23715;53.652;8.516;2023-07-30T19:44:19;48.10;;;45.08;;
37877;SDS011;23715;53.652;8.516;2023-07-30T19:49:21;45.65;;;42.73;;
37877;SDS011;23715;53.652;8.516;2023-07-30T19:59:21;46.10;;;43.50;;
37877;SDS011;23715;53.652;8.516;2023-07-30T20:09:22;51.33;;;48.33;;
37877;SDS011;23715;53.652;8.516;2023-07-30T20:14:22;51.40;;;48.30;;
37877;SDS011;23715;53.652;8.516;2023-07-30T20:19:22;53.50;;;50.50;;
37877;SDS011;23715;53.652;8.516;2023-07-30T20:24:23;51.17;;;48.23;;
37877;SDS011;23715;53.652;8.516;2023-07-30T20:29:25;53.17;;;49.90;;
37877;SDS011;23715;53.652;8.516;2023-07-30T20:34:25;52.10;;;49.00;;
37877;SDS011;23715;53.652;8.516;2023-07-30T20:39:26;51.05;;;47.50;;
37877;SDS011;23715;53.652;8.516;2023-07-30T20:44:26;54.00;;;50.50;;
37877;SDS011;23715;53.652;8.516;2023-07-30T20:49:26;57.03;;;53.33;;
37877;SDS011;23715;53.652;8.516;2023-07-30T20:54:28;52.20;;;49.40;;
37877;SDS011;23715;53.652;8.516;2023-07-30T20:59:28;52.75;;;49.53;;
37877;SDS011;23715;53.652;8.516;2023-07-30T21:09:28;50.73;;;47.83;;
37877;SDS011;23715;53.652;8.516;2023-07-30T21:14:29;54.50;;;51.05;;
37877;SDS011;23715;53.652;8.516;2023-07-30T21:19:29;55.52;;;52.23;;
37877;SDS011;23715;53.652;8.516;2023-07-30T21:24:29;50.83;;;47.80;;
37877;SDS011;23715;53.652;8.516;2023-07-30T21:29:30;55.10;;;51.75;;
37877;SDS011;23715;53.652;8.516;2023-07-30T21:34:31;52.95;;;49.88;;
37877;SDS011;23715;53.652;8.516;2023-07-30T21:39:31;49.05;;;45.85;;
37877;SDS011;23715;53.652;8.516;2023-07-30T21:44:32;52.78;;;49.58;;
37877;SDS011;23715;53.652;8.516;2023-07-30T21:49:33;52.65;;;49.45;;
37877;SDS011;23715;53.652;8.516;2023-07-30T21:54:33;48.92;;;46.15;;
37877;SDS011;23715;53.652;8.516;2023-07-30T21:59:37;54.42;;;50.75;;
37877;SDS011;23715;53.652;8.516;2023-07-30T22:04:40;53.25;;;49.73;;
37877;SDS011;23715;53.652;8.516;2023-07-30T22:09:43;52.17;;;49.03;;
37877;SDS011;23715;53.652;8.516;2023-07-30T22:14:43;50.60;;;47.63;;
37877;SDS011;23715;53.652;8.516;2023-07-30T22:24:43;51.88;;;47.93;;
37877;SDS011;23715;53.652;8.516;2023-07-30T22:29:43;51.90;;;48.33;;
37877;SDS011;23715;53.652;8.516;2023-07-30T22:39:43;48.92;;;45.52;;
37877;SDS011;23715;53.652;8.516;2023-07-30T22:44:43;50.33;;;46.73;;
37877;SDS011;23715;53.652;8.516;2023-07-30T22:49:43;53.05;;;48.83;;
37877;SDS011;23715;53.652;8.516;2023-07-30T22:54:44;56.45;;;52.67;;
37877;SDS011;23715;53.652;8.516;2023-07-30T22:59:44;57.62;;;53.73;;
37877;SDS011;23715;53.652;8.516;2023-07-30T23:04:45;59.15;;;55.33;;
37877;SDS011;23715;53.652;8.516;2023-07-30T23:09:45;63.08;;;58.75;;
37877;SDS011;23715;53.652;8.516;2023-07-30T23:14:45;63.50;;;59.42;;
37877;SDS011;23715;53.652;8.516;2023-07-30T23:24:45;59.40;;;55.33;;
37877;SDS011;23715;53.652;8.516;2023-07-30T23:29:45;59.05;;;54.98;;
37877;SDS011;23715;53.652;8.516;2023-07-30T23:34:45;60.17;;;56.05;;
37877;SDS011;23715;53.652;8.516;2023-07-30T23:39:49;57.85;;;53.35;;
37877;SDS011;23715;53.652;8.516;2023-07-30T23:44:50;57.38;;;53.40;;
37877;SDS011;23715;53.652;8.516;2023-07-30T23:49:52;58.38;;;54.05;;
37877;SDS011;23715;53.652;8.516;2023-07-30T23:54:52;60.65;;;56.73;;
37877;SDS011;23715;53.652;8.516;2023-07-30T23:59:52;59.88;;;56.18;;
